Time;durP1;ratioP1;P1;durP2;ratioP2;P2;SDS_P1;SDS_P2;PMS_P1;PMS_P2;Temp;Humidity;BMP_temperature;BMP_pressure;BME280_temperature;BME280_humidity;BME280_pressure;Samples;Min_cycle;Max_cycle;Signal;HPM_P1;HPM_P2
2021/08/22 00:00:40;;;;;;;12.33;10.13;;;;;;;14.96;73.17;100450.67;2164585;80;21053;-88
2021/08/22 00:03:41;;;;;;;11.75;9.53;;;;;;;15.00;73.14;100454.61;2148741;81;20963;-90
2021/08/22 00:06:42;;;;;;;12.82;9.25;;;;;;;15.06;73.37;100448.52;2194655;80;21553;-88
2021/08/22 00:09:43;;;;;;;13.98;9.65;;;;;;;15.09;73.31;100452.17;2146834;80;20985;-88
2021/08/22 00:12:44;;;;;;;16.05;8.95;;;;;;;15.12;73.42;100445.11;2187633;79;20954;-87
2021/08/22 00:15:50;;;;;;;15.03;9.43;;;;;;;15.17;73.41;100436.00;2184438;80;21107;-86
2021/08/22 00:18:49;;;;;;;12.33;9.60;;;;;;;15.21;73.34;100437.29;2165782;80;21034;-88
2021/08/22 00:21:50;;;;;;;12.40;8.95;;;;;;;15.25;73.32;100435.88;2154324;82;21061;-88
2021/08/22 00:24:51;;;;;;;12.40;8.95;;;;;;;15.31;73.33;100434.80;2163911;80;21029;-90
2021/08/22 00:27:52;;;;;;;10.95;9.13;;;;;;;15.35;73.27;100428.91;2133204;82;21530;-84
2021/08/22 00:30:53;;;;;;;11.95;8.55;;;;;;;15.42;73.30;100428.95;2164429;81;21024;-88
2021/08/22 00:33:54;;;;;;;11.70;8.83;;;;;;;15.45;73.20;100428.05;2162361;81;21062;-88
2021/08/22 00:36:55;;;;;;;15.98;9.95;;;;;;;15.53;73.15;100429.78;2144563;81;21553;-86
2021/08/22 00:39:58;;;;;;;14.90;10.08;;;;;;;15.57;73.17;100424.88;2161040;81;21025;-86
2021/08/22 00:43:04;;;;;;;12.98;10.30;;;;;;;15.58;73.15;100426.55;2156912;80;21046;-87
2021/08/22 00:46:05;;;;;;;11.73;9.13;;;;;;;15.57;73.13;100425.73;2142260;82;21068;-84
2021/08/22 00:49:08;;;;;;;13.25;10.20;;;;;;;15.55;73.10;100422.41;2186660;80;21516;-86
2021/08/22 00:52:09;;;;;;;15.08;8.80;;;;;;;15.53;73.16;100424.44;2170926;80;21049;-87
2021/08/22 00:55:10;;;;;;;14.60;9.68;;;;;;;15.53;73.12;100419.09;2188962;79;20979;-87
2021/08/22 00:58:12;;;;;;;11.95;8.43;;;;;;;15.55;73.16;100419.73;2187577;80;21081;-87
2021/08/22 01:01:23;;;;;;;11.18;9.05;;;;;;;15.58;73.14;100408.64;2159011;80;20972;-88
2021/08/22 01:04:36;;;;;;;13.35;9.45;;;;;;;15.62;73.12;100415.77;2168301;80;21498;-86
2021/08/22 01:07:52;;;;;;;11.65;9.23;;;;;;;15.64;73.12;100411.06;2170856;80;21719;-88
2021/08/22 01:11:05;;;;;;;15.70;9.70;;;;;;;15.64;73.05;100415.89;2155560;80;20973;-87
2021/08/22 01:14:14;;;;;;;14.68;9.50;;;;;;;15.61;73.08;100417.62;2182102;80;21510;-88
2021/08/22 01:17:17;;;;;;;12.88;9.73;;;;;;;15.58;73.09;100411.32;2166620;80;21116;-86
2021/08/22 01:20:56;;;;;;;12.98;9.85;;;;;;;15.55;73.10;100411.70;2145401;81;21679;-88
2021/08/22 01:24:04;;;;;;;11.10;9.68;;;;;;;15.54;73.17;100406.05;2124976;82;21062;-88
2021/08/22 01:27:07;;;;;;;12.88;9.95;;;;;;;15.55;73.15;100413.56;2130084;82;21563;-86
2021/08/22 01:30:17;;;;;;;13.10;10.18;;;;;;;15.55;73.21;100410.37;2163469;80;21081;-87
2021/08/22 01:33:20;;;;;;;12.85;9.08;;;;;;;15.57;73.30;100408.34;2149555;80;21010;-87
2021/08/22 01:36:22;;;;;;;13.28;10.38;;;;;;;15.59;73.30;100404.94;2128808;82;21028;-86
2021/08/22 01:39:24;;;;;;;12.68;9.35;;;;;;;15.59;73.21;100398.25;2182629;80;21532;-87
2021/08/22 01:42:27;;;;;;;16.37;10.25;;;;;;;15.52;73.19;100389.36;2185314;80;21501;-87
2021/08/22 01:45:29;;;;;;;13.80;10.43;;;;;;;15.50;73.23;100389.23;2188549;80;21544;-86
2021/08/22 01:48:32;;;;;;;16.27;10.32;;;;;;;15.46;73.36;100390.14;2168035;80;21540;-86
2021/08/22 01:51:33;;;;;;;12.65;9.95;;;;;;;15.43;73.36;100390.01;2183604;80;21021;-87
2021/08/22 01:54:36;;;;;;;14.68;10.25;;;;;;;15.39;73.36;100386.56;2179846;80;21517;-86
2021/08/22 01:57:43;;;;;;;15.70;11.15;;;;;;;15.32;73.45;100386.52;2187600;80;21010;-89
2021/08/22 02:00:44;;;;;;;14.20;10.88;;;;;;;15.27;73.63;100381.42;2185833;80;21002;-86
2021/08/22 02:03:57;;;;;;;12.90;11.25;;;;;;;15.21;73.73;100381.16;2188077;80;21418;-86
2021/08/22 02:07:10;;;;;;;15.60;10.93;;;;;;;15.15;73.77;100381.10;2190048;80;21041;-85
2021/08/22 02:10:27;;;;;;;13.43;9.75;;;;;;;15.08;73.84;100381.02;2186511;80;21023;-88
2021/08/22 02:13:35;;;;;;;14.47;11.08;;;;;;;15.06;73.85;100388.38;2187013;80;21015;-87
2021/08/22 02:16:37;;;;;;;11.70;9.85;;;;;;;15.07;73.85;100390.06;2181948;79;21019;-88
2021/08/22 02:19:40;;;;;;;13.30;10.50;;;;;;;15.05;73.66;100389.41;2197767;80;21013;-86
2021/08/22 02:22:42;;;;;;;14.55;10.72;;;;;;;15.01;73.77;100388.97;2179041;80;21026;-86
2021/08/22 02:25:44;;;;;;;12.07;9.58;;;;;;;14.99;73.83;100385.66;2186032;80;21015;-87
2021/08/22 02:28:57;;;;;;;12.28;10.98;;;;;;;14.94;73.83;100388.05;2182792;80;21122;-84
2021/08/22 02:31:58;;;;;;;13.00;10.05;;;;;;;14.84;73.89;100390.70;2190797;80;21535;-88
2021/08/22 02:35:00;;;;;;;11.70;9.53;;;;;;;14.77;74.05;100388.79;2138716;81;20999;-86
2021/08/22 02:38:02;;;;;;;11.48;9.85;;;;;;;14.70;74.01;100382.55;2135681;82;22220;-86
2021/08/22 02:41:04;;;;;;;11.95;10.58;;;;;;;14.61;73.99;100375.64;2134311;82;21094;-85
2021/08/22 02:44:05;;;;;;;13.05;10.48;;;;;;;14.55;74.47;100375.06;2095381;84;21008;-87
2021/08/22 02:47:06;;;;;;;19.15;11.73;;;;;;;14.50;74.42;100376.09;2078233;84;21055;-87
2021/08/22 02:50:08;;;;;;;13.72;11.65;;;;;;;14.45;74.54;100368.66;2069113;85;21634;-87
2021/08/22 02:53:10;;;;;;;13.75;11.25;;;;;;;14.43;74.74;100369.85;2075980;84;21059;-86
2021/08/22 02:56:11;;;;;;;15.20;11.97;;;;;;;14.41;74.84;100367.36;2074733;85;21521;-88
2021/08/22 02:59:12;;;;;;;15.65;11.45;;;;;;;14.33;75.02;100363.45;2073742;85;21495;-85
2021/08/22 03:02:13;;;;;;;14.73;11.53;;;;;;;14.27;75.20;100354.34;2087673;84;20979;-85
2021/08/22 03:05:14;;;;;;;13.22;11.70;;;;;;;14.22;75.34;100354.09;2066283;85;21012;-87
2021/08/22 03:08:17;;;;;;;15.15;12.28;;;;;;;14.17;75.57;100356.48;2136768;82;21007;-87
2021/08/22 03:11:19;;;;;;;16.97;11.50;;;;;;;14.10;75.60;100353.70;2132791;82;20977;-87
2021/08/22 03:14:20;;;;;;;14.50;12.20;;;;;;;14.08;75.58;100357.59;2145434;82;21001;-85
2021/08/22 03:17:22;;;;;;;20.88;11.93;;;;;;;14.07;75.59;100357.25;2086607;84;21043;-87
2021/08/22 03:20:23;;;;;;;15.50;12.03;;;;;;;13.97;75.73;100358.05;2073602;85;21624;-87
2021/08/22 03:23:24;;;;;;;13.22;11.57;;;;;;;13.94;75.84;100357.90;2125878;82;20979;-86
2021/08/22 03:26:25;;;;;;;14.90;12.25;;;;;;;13.94;75.98;100354.38;2130637;82;21018;-86
2021/08/22 03:29:26;;;;;;;17.23;12.50;;;;;;;13.92;75.97;100349.76;2114978;83;21520;-86
2021/08/22 03:32:27;;;;;;;16.55;11.93;;;;;;;13.87;75.95;100347.11;2115577;81;21022;-86
2021/08/22 03:35:29;;;;;;;16.75;12.98;;;;;;;13.84;75.98;100354.14;2186289;80;21068;-86
2021/08/22 03:38:30;;;;;;;15.90;12.75;;;;;;;13.79;76.18;100352.53;2176436;80;20966;-85
2021/08/22 03:41:33;;;;;;;14.43;11.83;;;;;;;13.77;76.45;100351.05;2180415;80;20985;-89
2021/08/22 03:44:34;;;;;;;16.45;12.10;;;;;;;13.74;76.30;100353.60;2177303;80;21030;-87
2021/08/22 03:47:35;;;;;;;16.20;13.03;;;;;;;13.71;76.25;100349.94;2153634;80;21077;-89
2021/08/22 03:50:36;;;;;;;17.85;12.47;;;;;;;13.70;76.11;100350.95;2163537;80;21028;-89
2021/08/22 03:53:38;;;;;;;15.53;13.13;;;;;;;13.71;76.53;100348.60;2174998;80;21092;-88
2021/08/22 03:56:39;;;;;;;16.97;11.93;;;;;;;13.71;76.55;100358.45;2173869;80;21502;-88
2021/08/22 03:59:41;;;;;;;14.78;12.80;;;;;;;13.70;76.41;100362.95;2173650;80;20986;-88
2021/08/22 04:02:43;;;;;;;18.85;13.50;;;;;;;13.72;76.28;100366.28;2171239;80;21499;-88
2021/08/22 04:06:01;;;;;;;22.37;13.25;;;;;;;13.74;76.35;100365.60;2050224;85;21047;-87
2021/08/22 04:09:03;;;;;;;16.35;14.28;;;;;;;13.71;76.33;100361.11;2155173;80;21497;-85
2021/08/22 04:12:05;;;;;;;17.80;12.90;;;;;;;13.70;76.57;100369.63;2180489;80;21016;-88
2021/08/22 04:15:07;;;;;;;18.30;12.88;;;;;;;13.71;76.67;100364.60;2176100;80;21034;-86
2021/08/22 04:18:08;;;;;;;17.12;14.20;;;;;;;13.65;76.82;100364.82;2172492;80;21022;-89
2021/08/22 04:21:09;;;;;;;16.17;12.20;;;;;;;13.66;77.06;100358.50;2160237;80;21032;-88
2021/08/22 04:24:11;;;;;;;17.10;14.28;;;;;;;13.76;76.85;100358.23;2168929;80;21061;-86
2021/08/22 04:27:13;;;;;;;17.98;13.78;;;;;;;13.94;77.04;100354.38;2165046;80;21015;-87
2021/08/22 04:30:14;;;;;;;16.48;13.70;;;;;;;14.11;77.07;100349.22;2169228;80;21042;-87
2021/08/22 04:33:16;;;;;;;19.95;14.58;;;;;;;14.29;77.05;100355.50;2165600;80;21064;-85
2021/08/22 04:36:17;;;;;;;16.80;13.45;;;;;;;14.53;76.95;100354.42;2156327;82;21002;-85
2021/08/22 04:39:18;;;;;;;17.77;13.05;;;;;;;14.82;76.65;100347.34;2138763;81;21466;-87
2021/08/22 04:42:20;;;;;;;15.23;13.18;;;;;;;15.01;76.33;100346.73;2146126;81;21018;-87
2021/08/22 04:45:21;;;;;;;14.65;12.65;;;;;;;15.27;76.11;100342.66;2153662;81;21072;-87
2021/08/22 04:48:22;;;;;;;16.15;12.70;;;;;;;15.44;75.54;100337.35;2096342;83;21002;-85
2021/08/22 04:51:23;;;;;;;14.83;12.13;;;;;;;15.57;75.34;100344.64;2080004;84;21023;-88
2021/08/22 04:54:25;;;;;;;16.17;11.78;;;;;;;15.83;75.25;100346.73;2080780;84;20986;-86
2021/08/22 04:57:26;;;;;;;16.57;12.55;;;;;;;16.04;74.54;100339.95;2072716;84;21029;-87
2021/08/22 05:00:27;;;;;;;16.90;12.75;;;;;;;16.21;74.66;100336.45;2075095;83;21002;-85
2021/08/22 05:03:28;;;;;;;16.42;13.45;;;;;;;16.56;74.40;100336.41;2078543;84;20989;-88
2021/08/22 05:06:30;;;;;;;18.55;13.55;;;;;;;16.82;73.88;100334.88;2083690;84;21003;-87
2021/08/22 05:09:32;;;;;;;15.75;12.53;;;;;;;17.17;73.76;100335.02;2092903;83;21011;-85
2021/08/22 05:12:33;;;;;;;14.68;11.95;;;;;;;17.42;72.72;100324.52;2117811;83;21017;-88
2021/08/22 05:15:34;;;;;;;13.45;11.00;;;;;;;17.61;72.54;100336.80;2121489;83;21502;-88
2021/08/22 05:18:35;;;;;;;14.58;12.13;;;;;;;17.98;72.60;100336.67;2113207;83;21009;-85
2021/08/22 05:21:36;;;;;;;14.87;11.00;;;;;;;18.48;72.16;100342.83;2114291;83;20997;-87
2021/08/22 05:24:38;;;;;;;14.75;11.40;;;;;;;18.93;71.74;100342.84;2085569;84;21050;-88
2021/08/22 05:27:39;;;;;;;14.20;10.78;;;;;;;19.18;70.21;100340.20;2150748;81;21004;-89
2021/08/22 05:30:40;;;;;;;12.13;10.88;;;;;;;19.52;70.31;100340.77;2142281;82;21511;-88
2021/08/22 05:33:44;;;;;;;14.25;11.55;;;;;;;19.78;69.48;100343.23;2135207;82;21482;-88
2021/08/22 05:36:44;;;;;;;14.73;11.45;;;;;;;19.79;68.97;100344.05;2135433;82;21596;-85
2021/08/22 05:39:45;;;;;;;13.78;11.73;;;;;;;19.88;68.57;100346.25;2134821;82;20974;-85
2021/08/22 05:42:47;;;;;;;14.95;11.12;;;;;;;19.80;67.98;100340.34;2088021;84;21022;-90
2021/08/22 05:45:48;;;;;;;12.75;11.38;;;;;;;19.74;67.90;100348.77;2134691;82;21039;-88
2021/08/22 05:48:49;;;;;;;18.77;12.30;;;;;;;19.70;67.48;100344.86;2092493;84;22176;-88
2021/08/22 05:51:50;;;;;;;13.90;11.60;;;;;;;19.61;67.33;100345.63;2131475;82;21007;-88
2021/08/22 05:54:52;;;;;;;13.53;11.78;;;;;;;19.50;67.31;100343.66;2141856;82;21021;-88
2021/08/22 05:57:53;;;;;;;14.90;11.88;;;;;;;19.51;67.22;100341.78;2129785;81;21011;-88
2021/08/22 06:00:54;;;;;;;13.78;11.80;;;;;;;19.44;66.96;100336.47;2130017;82;21030;-86
2021/08/22 06:03:55;;;;;;;14.20;12.18;;;;;;;19.25;66.77;100335.58;2127578;82;21099;-87
2021/08/22 06:06:56;;;;;;;14.28;11.90;;;;;;;19.12;66.83;100332.48;2093842;84;21022;-87
2021/08/22 06:09:58;;;;;;;16.10;11.55;;;;;;;18.96;66.88;100332.99;2130773;82;21023;-87
2021/08/22 06:13:00;;;;;;;17.17;11.48;;;;;;;19.02;67.41;100330.25;2093270;84;21046;-88
2021/08/22 06:16:01;;;;;;;14.58;11.63;;;;;;;19.29;67.65;100331.92;2079311;85;20987;-89
2021/08/22 06:19:03;;;;;;;12.33;10.72;;;;;;;19.25;66.82;100339.09;2139844;82;21004;-88
2021/08/22 06:22:05;;;;;;;12.93;10.55;;;;;;;19.24;66.96;100334.76;2132514;81;21032;-88
2021/08/22 06:25:07;;;;;;;12.20;10.23;;;;;;;19.39;66.91;100329.05;2094455;84;21586;-86
2021/08/22 06:28:08;;;;;;;14.73;10.65;;;;;;;19.41;66.58;100328.84;2131145;82;20988;-88
2021/08/22 06:31:09;;;;;;;14.07;10.65;;;;;;;19.56;67.00;100332.01;2130833;82;21460;-89
2021/08/22 06:34:10;;;;;;;11.93;10.08;;;;;;;19.65;66.30;100331.20;2157916;80;21065;-87
2021/08/22 06:37:12;;;;;;;11.33;9.60;;;;;;;19.80;66.32;100337.64;2191771;79;21489;-86
2021/08/22 06:40:13;;;;;;;11.22;9.43;;;;;;;20.26;66.45;100330.40;2183354;80;21077;-90
2021/08/22 06:43:14;;;;;;;10.93;8.73;;;;;;;20.72;65.37;100337.12;2189133;80;20947;-87
2021/08/22 06:46:16;;;;;;;12.15;8.90;;;;;;;20.82;64.46;100336.03;2193127;80;20994;-89
2021/08/22 06:49:17;;;;;;;9.33;8.25;;;;;;;20.97;64.42;100338.30;2189884;79;21045;-86
2021/08/22 06:52:18;;;;;;;11.45;8.25;;;;;;;21.03;63.79;100327.97;2186368;80;21050;-87
2021/08/22 06:55:19;;;;;;;10.75;8.60;;;;;;;21.03;63.16;100327.97;2183480;80;20983;-88
2021/08/22 06:58:22;;;;;;;11.18;8.10;;;;;;;20.94;63.38;100333.38;2185802;80;21018;-88
2021/08/22 07:01:24;;;;;;;12.20;7.90;;;;;;;21.22;63.77;100331.39;2177030;80;21043;-88
2021/08/22 07:04:25;;;;;;;10.10;7.87;;;;;;;21.47;62.79;100325.83;2175137;80;21480;-87
2021/08/22 07:07:26;;;;;;;9.23;7.90;;;;;;;21.82;62.73;100316.93;2182148;80;21571;-87
2021/08/22 07:10:27;;;;;;;8.53;7.33;;;;;;;22.23;60.93;100319.17;2178995;80;21086;-88
2021/08/22 07:13:29;;;;;;;8.90;7.37;;;;;;;22.46;60.95;100320.98;2189320;80;21065;-86
2021/08/22 07:16:31;;;;;;;8.65;6.90;;;;;;;22.58;60.01;100324.99;2181963;80;21488;-87
2021/08/22 07:19:32;;;;;;;8.50;7.00;;;;;;;22.87;59.80;100326.36;2177942;80;21049;-88
2021/08/22 07:22:33;;;;;;;12.10;7.67;;;;;;;23.02;59.71;100320.70;2184203;80;21050;-84
2021/08/22 07:25:34;;;;;;;9.55;6.90;;;;;;;23.17;59.12;100317.97;2191421;80;21010;-86
2021/08/22 07:28:35;;;;;;;7.78;6.65;;;;;;;23.23;56.83;100311.06;2182485;80;21094;-87
2021/08/22 07:31:36;;;;;;;10.45;6.75;;;;;;;23.37;57.21;100313.42;2192009;80;21532;-87
2021/08/22 07:34:39;;;;;;;8.28;7.15;;;;;;;23.58;57.08;100314.58;2164077;80;21024;-88
2021/08/22 07:37:40;;;;;;;8.98;6.33;;;;;;;23.70;55.67;100318.00;2144544;81;21501;-86
2021/08/22 07:40:41;;;;;;;12.30;6.87;;;;;;;23.74;54.77;100314.28;2148527;81;21035;-87
2021/08/22 07:43:42;;;;;;;7.10;6.40;;;;;;;23.73;54.59;100310.75;2154787;81;20961;-90
2021/08/22 07:46:44;;;;;;;9.48;7.35;;;;;;;23.66;54.33;100312.80;2161344;81;21452;-89
2021/08/22 07:49:45;;;;;;;8.18;6.40;;;;;;;23.80;54.51;100310.59;2145853;81;21030;-87
2021/08/22 07:52:47;;;;;;;8.03;6.50;;;;;;;23.92;53.49;100309.40;2153358;80;21029;-87
2021/08/22 07:55:48;;;;;;;8.50;6.55;;;;;;;24.01;54.04;100315.75;2146142;81;20991;-87
2021/08/22 07:58:49;;;;;;;6.87;6.05;;;;;;;23.84;54.00;100312.53;2158109;82;21485;-89
2021/08/22 08:01:50;;;;;;;9.25;6.45;;;;;;;23.83;54.40;100316.33;2148242;82;21009;-86
2021/08/22 08:04:51;;;;;;;5.83;5.22;;;;;;;23.96;54.24;100325.16;2145205;82;21572;-88
2021/08/22 08:07:53;;;;;;;6.42;5.65;;;;;;;24.35;53.86;100321.87;2153511;82;21133;-87
2021/08/22 08:10:54;;;;;;;9.68;6.00;;;;;;;24.60;52.46;100318.12;2154345;82;21057;-89
2021/08/22 08:13:55;;;;;;;8.35;5.58;;;;;;;24.68;52.24;100325.53;2150881;82;21002;-88
2021/08/22 08:16:57;;;;;;;7.60;5.87;;;;;;;24.89;51.59;100317.05;2156802;81;21038;-87
2021/08/22 08:19:58;;;;;;;7.80;5.67;;;;;;;25.08;50.42;100318.86;2141894;81;21375;-87
2021/08/22 08:23:00;;;;;;;7.10;5.25;;;;;;;25.16;52.01;100310.28;2143617;81;21043;-89
2021/08/22 08:26:01;;;;;;;8.15;5.92;;;;;;;25.57;51.29;100319.56;2146203;81;20961;-87
2021/08/22 08:29:03;;;;;;;6.62;5.40;;;;;;;25.81;50.70;100307.75;2151942;81;21029;-87
2021/08/22 08:32:05;;;;;;;6.62;5.62;;;;;;;25.59;49.63;100315.22;2145229;81;21083;-85
2021/08/22 08:35:11;;;;;;;4.95;4.45;;;;;;;25.75;50.87;100313.42;2156348;80;21026;-88
2021/08/22 08:38:12;;;;;;;4.65;4.15;;;;;;;26.17;48.97;100312.04;2175216;80;21483;-90
2021/08/22 08:41:13;;;;;;;5.37;4.50;;;;;;;26.31;49.63;100309.10;2160087;80;21005;-86
2021/08/22 08:44:14;;;;;;;7.25;4.92;;;;;;;26.39;48.41;100309.95;2173932;80;20996;-88
2021/08/22 08:47:20;;;;;;;5.70;5.03;;;;;;;26.73;46.49;100304.08;2148818;81;20996;-89
2021/08/22 08:50:45;;;;;;;4.78;4.12;;;;;;;26.83;46.88;100305.98;2164122;80;21045;-87
2021/08/22 08:53:51;;;;;;;5.80;4.67;;;;;;;26.83;45.63;100294.58;2162688;81;21544;-87
2021/08/22 08:56:53;;;;;;;5.55;4.50;;;;;;;26.64;45.11;100298.91;2145312;81;21013;-89
2021/08/22 08:59:54;;;;;;;5.97;4.42;;;;;;;26.80;44.84;100297.00;2173663;80;20962;-88
2021/08/22 09:02:56;;;;;;;5.97;4.40;;;;;;;27.01;43.88;100296.50;2133559;81;21038;-87
2021/08/22 09:06:18;;;;;;;4.97;4.47;;;;;;;27.07;45.10;100302.77;2153821;80;21026;-86
2021/08/22 09:10:16;;;;;;;5.87;4.92;;;;;;;27.22;42.61;100291.89;2143273;81;21078;-85
2021/08/22 09:14:09;;;;;;;5.70;4.78;;;;;;;27.33;44.37;100294.06;2157051;80;20973;-90
2021/08/22 09:17:49;;;;;;;5.08;3.65;;;;;;;27.57;44.06;100292.41;2164060;80;21002;-87
2021/08/22 09:21:46;;;;;;;4.50;4.10;;;;;;;27.58;44.79;100287.22;2122911;82;21031;-88
2021/08/22 09:25:43;;;;;;;5.33;4.45;;;;;;;27.93;43.12;100289.59;2098698;84;21016;-87
2021/08/22 09:29:41;;;;;;;4.72;3.70;;;;;;;27.87;42.65;100283.89;2090020;85;21056;-86
2021/08/22 09:33:38;;;;;;;5.62;4.00;;;;;;;28.01;43.08;100276.75;2090212;84;21524;-88
2021/08/22 09:37:11;;;;;;;4.50;4.10;;;;;;;28.11;44.03;100283.54;2074860;83;21634;-88
2021/08/22 09:40:57;;;;;;;7.45;4.37;;;;;;;28.16;41.73;100273.97;2098446;83;21140;-89
2021/08/22 09:44:49;;;;;;;4.65;3.77;;;;;;;28.04;42.08;100277.55;2098565;83;21483;-89
2021/08/22 09:48:32;;;;;;;5.35;4.17;;;;;;;28.14;42.16;100275.34;2090156;83;21501;-87
2021/08/22 09:52:25;;;;;;;5.87;3.92;;;;;;;28.09;42.28;100273.45;2105948;83;21066;-86
2021/08/22 09:55:48;;;;;;;5.17;4.40;;;;;;;28.08;42.12;100265.01;2095753;83;21075;-88
2021/08/22 09:59:34;;;;;;;6.12;4.05;;;;;;;28.04;42.07;100266.64;1988416;84;20960;-88
2021/08/22 10:03:06;;;;;;;4.10;3.55;;;;;;;28.08;42.06;100257.37;2129178;83;21061;-88
2021/08/22 10:06:31;;;;;;;5.00;3.83;;;;;;;28.30;42.64;100255.64;2131107;83;21052;-86
2021/08/22 10:10:00;;;;;;;4.60;4.17;;;;;;;28.44;42.54;100252.58;2130084;83;21037;-87
2021/08/22 10:13:01;;;;;;;6.15;3.75;;;;;;;28.32;41.30;100254.23;2127924;83;21795;-87
2021/08/22 10:16:02;;;;;;;3.75;3.35;;;;;;;28.39;42.08;100247.12;2094113;83;21050;-87
2021/08/22 10:19:07;;;;;;;5.08;3.67;;;;;;;28.42;41.70;100245.74;2124460;83;21092;-88
2021/08/22 10:22:35;;;;;;;4.97;3.10;;;;;;;28.67;42.01;100246.16;2133810;83;21487;-88
2021/08/22 10:25:51;;;;;;;3.30;3.00;;;;;;;28.88;40.16;100242.14;2130736;83;21045;-88
2021/08/22 10:29:01;;;;;;;3.20;2.80;;;;;;;28.85;40.76;100241.36;2137816;82;21533;-91
2021/08/22 10:32:06;;;;;;;3.47;3.17;;;;;;;29.03;40.95;100235.77;2119776;83;21518;-87
2021/08/22 10:35:19;;;;;;;7.25;3.10;;;;;;;29.26;40.04;100228.19;2133826;82;21593;-88
2021/08/22 10:38:25;;;;;;;3.30;3.00;;;;;;;29.39;40.45;100238.97;2140086;80;21076;-88
2021/08/22 10:41:34;;;;;;;4.62;3.05;;;;;;;29.34;40.07;100228.12;2137909;82;21035;-85
2021/08/22 10:44:43;;;;;;;3.55;2.92;;;;;;;29.16;38.51;100227.47;2151304;81;21042;-88
2021/08/22 10:47:46;;;;;;;21.33;3.65;;;;;;;29.15;40.16;100224.48;2159635;82;21046;-87
2021/08/22 10:51:07;;;;;;;7.28;3.15;;;;;;;29.37;39.82;100232.16;2119736;83;21011;-87
2021/08/22 10:54:18;;;;;;;4.33;3.15;;;;;;;29.15;39.88;100235.41;2108833;83;20985;-86
2021/08/22 10:57:49;;;;;;;10.00;2.83;;;;;;;28.99;40.09;100234.13;2115063;83;20993;-87
2021/08/22 11:00:56;;;;;;;6.70;3.42;;;;;;;28.85;38.39;100241.36;2115221;83;21035;-86
2021/08/22 11:04:17;;;;;;;3.47;3.17;;;;;;;28.58;39.61;100232.30;2097847;84;21016;-88
2021/08/22 11:07:25;;;;;;;4.00;3.55;;;;;;;28.30;39.95;100229.72;2090641;83;21060;-88
2021/08/22 11:10:29;;;;;;;4.72;3.65;;;;;;;27.79;40.35;100228.55;2099277;83;21422;-85
2021/08/22 11:13:37;;;;;;;4.75;3.62;;;;;;;27.39;40.45;100230.30;2127135;83;21123;-88
2021/08/22 11:16:45;;;;;;;5.67;3.15;;;;;;;27.39;41.05;100226.22;2120892;83;21028;-86
2021/08/22 11:19:47;;;;;;;5.17;3.30;;;;;;;27.29;40.87;100215.36;2096956;84;21515;-89
2021/08/22 11:22:50;;;;;;;4.47;3.10;;;;;;;27.10;41.24;100210.44;2110279;83;20989;-87
2021/08/22 11:26:04;;;;;;;4.05;3.65;;;;;;;27.03;41.61;100207.17;2112029;82;21023;-86
2021/08/22 11:29:05;;;;;;;6.70;3.52;;;;;;;27.04;41.10;100207.45;2113204;83;20995;-85
2021/08/22 11:32:07;;;;;;;4.47;3.33;;;;;;;27.37;42.16;100199.78;2099168;83;20995;-89
2021/08/22 11:35:18;;;;;;;8.58;3.47;;;;;;;27.68;42.17;100198.62;2122389;83;21501;-86
2021/08/22 11:38:21;;;;;;;5.20;2.75;;;;;;;28.17;41.68;100192.95;2112694;83;21045;-86
2021/08/22 11:41:23;;;;;;;3.42;3.10;;;;;;;28.25;41.13;100197.01;2090020;83;21496;-87
2021/08/22 11:44:26;;;;;;;3.30;3.00;;;;;;;28.31;41.34;100185.77;2090587;84;21009;-86
2021/08/22 11:47:27;;;;;;;3.33;3.02;;;;;;;28.23;40.84;100194.55;2096599;84;21072;-87
2021/08/22 11:50:32;;;;;;;3.30;3.00;;;;;;;28.23;40.95;100182.83;2108819;82;21880;-86
2021/08/22 11:53:39;;;;;;;4.83;3.20;;;;;;;28.46;40.69;100198.52;2114616;83;20992;-87
2021/08/22 11:56:40;;;;;;;3.25;3.00;;;;;;;28.59;40.10;100191.61;2111624;83;21612;-89
2021/08/22 11:59:41;;;;;;;4.53;2.90;;;;;;;28.32;40.46;100194.77;2116090;83;20961;-89
2021/08/22 12:03:02;;;;;;;4.50;2.92;;;;;;;28.47;41.29;100183.79;2118035;83;21096;-86
2021/08/22 12:06:09;;;;;;;3.62;3.33;;;;;;;28.69;40.57;100183.35;2118747;83;21020;-88
2021/08/22 12:09:19;;;;;;;3.50;3.20;;;;;;;28.83;40.44;100180.22;2112031;83;21072;-88
2021/08/22 12:12:21;;;;;;;3.60;2.80;;;;;;;28.81;40.06;100180.24;2110941;83;21001;-88
2021/08/22 12:15:38;;;;;;;4.53;2.83;;;;;;;28.69;40.40;100173.80;2113105;82;21554;-88
2021/08/22 12:18:40;;;;;;;2.77;2.42;;;;;;;28.50;40.56;100173.67;2111559;83;21038;-88
2021/08/22 12:21:41;;;;;;;3.10;2.80;;;;;;;28.73;40.59;100169.94;2115937;83;20996;-86
2021/08/22 12:24:48;;;;;;;4.75;2.70;;;;;;;28.99;40.37;100167.22;2110655;83;21338;-87
2021/08/22 12:27:49;;;;;;;3.65;2.58;;;;;;;29.33;40.31;100165.55;2119247;83;21000;-88
2021/08/22 12:31:12;;;;;;;3.92;2.98;;;;;;;29.35;40.11;100155.14;2121773;83;21002;-89
2021/08/22 12:34:16;;;;;;;2.72;2.52;;;;;;;29.23;39.70;100155.55;2105753;83;21025;-88
2021/08/22 12:37:21;;;;;;;3.65;2.52;;;;;;;28.98;40.04;100149.77;2117884;83;21023;-86
2021/08/22 12:40:23;;;;;;;2.92;2.62;;;;;;;29.01;39.65;100150.00;2118480;82;21013;-88
2021/08/22 12:43:25;;;;;;;3.95;2.65;;;;;;;29.17;39.33;100141.14;2103097;83;21083;-86
2021/08/22 12:46:28;;;;;;;2.80;2.60;;;;;;;29.16;38.31;100141.41;2099468;84;21016;-88
2021/08/22 12:49:34;;;;;;;5.17;3.05;;;;;;;29.02;39.01;100138.52;2094573;83;21052;-88
2021/08/22 12:52:36;;;;;;;4.53;2.80;;;;;;;28.99;39.46;100134.45;2103163;83;21509;-87
2021/08/22 12:55:37;;;;;;;2.83;2.60;;;;;;;28.82;39.15;100125.33;2112573;83;21040;-89
2021/08/22 12:58:39;;;;;;;3.27;2.42;;;;;;;28.73;39.30;100125.70;2111920;83;21485;-89
2021/08/22 13:01:41;;;;;;;4.17;2.90;;;;;;;28.69;40.21;100114.27;2110653;83;21494;-89
2021/08/22 13:04:42;;;;;;;4.35;2.60;;;;;;;28.55;39.75;100116.32;2092596;83;21020;-89
2021/08/22 13:07:43;;;;;;;5.90;2.87;;;;;;;28.46;40.68;100118.02;2103121;83;21056;-87
2021/08/22 13:10:44;;;;;;;3.62;2.90;;;;;;;28.24;40.05;100128.52;2112644;83;21560;-86
2021/08/22 13:13:47;;;;;;;2.77;2.50;;;;;;;27.85;40.15;100127.42;2117211;83;21016;-87
2021/08/22 13:16:49;;;;;;;3.22;2.50;;;;;;;27.58;40.89;100130.52;2121217;83;21517;-90
2021/08/22 13:19:50;;;;;;;3.40;3.00;;;;;;;27.22;40.44;100121.11;2109179;82;21027;-86
2021/08/22 13:22:51;;;;;;;3.60;3.12;;;;;;;26.90;41.40;100120.63;2103298;84;20984;-88
2021/08/22 13:25:52;;;;;;;3.55;3.25;;;;;;;26.62;42.56;100124.20;2104715;83;20973;-89
2021/08/22 13:28:55;;;;;;;24.77;5.37;;;;;;;26.32;43.55;100131.22;2106303;83;21045;-87
2021/08/22 13:31:57;;;;;;;17.77;5.85;;;;;;;25.85;46.66;100147.74;2091445;83;21045;-86
2021/08/22 13:34:58;;;;;;;15.63;5.47;;;;;;;25.00;49.81;100161.36;2108424;83;21031;-86
2021/08/22 13:37:59;;;;;;;11.15;4.65;;;;;;;23.62;52.86;100214.95;2077822;85;21086;-87
2021/08/22 13:41:01;;;;;;;10.98;4.20;;;;;;;22.64;54.02;100221.80;2104192;84;21023;-87
2021/08/22 13:44:04;;;;;;;5.28;3.80;;;;;;;21.86;55.17;100204.65;2094097;84;21057;-86
2021/08/22 13:47:06;;;;;;;8.05;3.67;;;;;;;21.52;56.87;100192.05;2085770;85;21051;-88
2021/08/22 13:50:11;;;;;;;5.53;3.17;;;;;;;21.23;57.87;100181.95;2090205;85;21015;-87
2021/08/22 13:53:12;;;;;;;4.08;2.98;;;;;;;20.96;58.79;100152.45;2086590;84;20980;-87
2021/08/22 13:56:14;;;;;;;4.45;2.37;;;;;;;20.61;59.67;100141.12;2076303;84;21075;-87
2021/08/22 13:59:15;;;;;;;5.78;2.80;;;;;;;20.36;59.65;100135.34;2093814;84;21000;-86
2021/08/22 14:02:16;;;;;;;6.22;3.20;;;;;;;20.09;61.18;100142.98;2093707;84;21545;-86
2021/08/22 14:05:19;;;;;;;3.80;2.42;;;;;;;19.92;60.78;100154.09;2092662;84;21061;-89
2021/08/22 14:08:20;;;;;;;8.50;3.60;;;;;;;19.98;61.39;100188.72;2095214;85;21005;-87
2021/08/22 14:11:22;;;;;;;6.40;3.60;;;;;;;19.88;62.90;100206.77;2088968;85;21096;-90
2021/08/22 14:14:27;;;;;;;4.90;3.98;;;;;;;19.72;63.71;100192.03;2093045;85;21517;-88